Terminal Aerodrome Forecast
Issued by NWS

Home | Current Version | Previous Version | Text Only | Print | Product List | Glossary Off
Versions: 1 2 3 4 5 6 7 8 9 10 11 12 13 14 15 16 17 18 19 20 21 22 23 24 25 26 27

000
FTUS43 KBIS 260500
TAFMOT
TAF
KMOT 260537Z 2606/2706 36010KT 6SM BR SCT015 OVC022
      TEMPO 2606/2610 -SN OVC015
     FM261200 01008KT P6SM BKN030 OVC070
     FM262100 04007KT P6SM SCT035
     FM270300 11005KT P6SM SCT250=

USA.gov is the U.S. government's official web portal to all federal, state and local government web resources and services.